createdAt,value
2022-08-25T00:01:49.779Z,100.00
2022-08-25T00:04:18.332Z,100.00
2022-08-25T00:06:51.140Z,100.00
2022-08-25T00:09:21.657Z,100.00
2022-08-25T00:11:49.335Z,100.00
2022-08-25T00:14:18.263Z,100.00
2022-08-25T00:16:45.812Z,100.00
2022-08-25T00:19:15.582Z,100.00
2022-08-25T00:21:46.572Z,100.00
2022-08-25T00:24:15.937Z,100.00
2022-08-25T00:26:53.789Z,100.00
2022-08-25T00:29:22.146Z,100.00
2022-08-25T00:31:49.323Z,100.00
2022-08-25T00:34:19.312Z,100.00
2022-08-25T00:36:48.901Z,100.00
2022-08-25T00:39:22.223Z,100.00
2022-08-25T00:41:54.139Z,100.00
2022-08-25T00:44:24.747Z,100.00
2022-08-25T00:46:56.489Z,100.00
2022-08-25T00:49:38.408Z,100.00
2022-08-25T00:52:09.464Z,100.00
2022-08-25T00:54:40.596Z,100.00
2022-08-25T00:57:08.918Z,100.00
2022-08-25T00:59:42.010Z,100.00
2022-08-25T01:02:09.726Z,100.00
2022-08-25T01:04:48.873Z,100.00
2022-08-25T01:07:20.180Z,100.00
2022-08-25T01:09:52.124Z,100.00
2022-08-25T01:12:22.643Z,100.00
2022-08-25T01:14:53.943Z,100.00
2022-08-25T01:17:24.067Z,100.00
2022-08-25T01:19:51.089Z,100.00
2022-08-25T01:22:18.532Z,100.00
2022-08-25T01:24:50.015Z,100.00
2022-08-25T01:27:17.221Z,100.00
2022-08-25T01:29:50.533Z,100.00
2022-08-25T01:32:21.339Z,100.00
2022-08-25T01:34:51.904Z,100.00
2022-08-25T01:37:19.667Z,100.00
2022-08-25T01:39:49.866Z,100.00
2022-08-25T01:42:28.371Z,100.00
2022-08-25T01:45:01.665Z,100.00
2022-08-25T01:47:29.820Z,100.00
2022-08-25T01:50:00.613Z,100.00
2022-08-25T01:52:37.314Z,100.00
2022-08-25T01:55:05.214Z,100.00
2022-08-25T01:57:37.903Z,100.00
2022-08-25T02:00:06.582Z,100.00
2022-08-25T02:02:42.023Z,100.00
2022-08-25T02:05:14.178Z,100.00
2022-08-25T02:07:44.305Z,100.00
2022-08-25T02:10:12.881Z,100.00
2022-08-25T02:12:40.719Z,100.00
2022-08-25T02:15:08.766Z,100.00
2022-08-25T02:17:36.005Z,100.00
2022-08-25T02:20:04.729Z,100.00
2022-08-25T02:22:34.666Z,100.00
2022-08-25T02:25:02.042Z,100.00
2022-08-25T02:27:29.093Z,97.75
2022-08-25T02:29:59.954Z,98.10
2022-08-25T02:32:27.362Z,96.75
2022-08-25T02:34:54.795Z,95.97
2022-08-25T02:37:27.428Z,95.27
2022-08-25T02:39:56.859Z,94.45
2022-08-25T02:42:27.573Z,95.48
2022-08-25T02:45:01.143Z,94.35
2022-08-25T02:47:31.515Z,93.77
2022-08-25T02:49:58.876Z,94.34
2022-08-25T02:52:26.123Z,95.22
2022-08-25T02:54:53.342Z,95.84
2022-08-25T02:57:23.539Z,94.79
2022-08-25T02:59:51.320Z,95.83
2022-08-25T03:02:18.682Z,96.26
2022-08-25T03:04:52.154Z,95.79
2022-08-25T03:07:22.336Z,95.56
2022-08-25T03:09:52.735Z,96.35
2022-08-25T03:12:19.913Z,98.61
2022-08-25T03:14:54.217Z,98.25
2022-08-25T03:17:21.556Z,97.09
2022-08-25T03:19:52.203Z,96.48
2022-08-25T03:22:19.965Z,95.70
2022-08-25T03:24:47.278Z,95.51
2022-08-25T03:27:18.161Z,95.57
2022-08-25T03:29:45.506Z,95.87
2022-08-25T03:32:15.389Z,94.67
2022-08-25T03:34:45.705Z,96.10
2022-08-25T03:37:32.564Z,96.46
2022-08-25T03:40:00.321Z,96.39
2022-08-25T03:42:27.563Z,96.92
2022-08-25T03:44:55.091Z,98.11
2022-08-25T03:47:27.901Z,98.04
2022-08-25T03:49:55.706Z,98.76
2022-08-25T03:52:26.375Z,98.90
2022-08-25T03:54:57.054Z,100.00
2022-08-25T03:57:28.201Z,98.00
2022-08-25T03:59:59.299Z,97.94
2022-08-25T04:02:30.719Z,97.91
2022-08-25T04:05:01.380Z,97.98
2022-08-25T04:07:30.497Z,98.08
2022-08-25T04:10:08.456Z,98.09
2022-08-25T04:12:36.286Z,96.96
2022-08-25T04:15:04.866Z,96.25
2022-08-25T04:17:32.513Z,96.06
2022-08-25T04:20:01.482Z,95.64
2022-08-25T04:22:36.858Z,95.95
2022-08-25T04:25:05.269Z,95.82
2022-08-25T04:27:36.187Z,95.57
2022-08-25T04:30:07.543Z,94.06
2022-08-25T04:32:36.144Z,93.32
2022-08-25T04:35:04.187Z,93.74
2022-08-25T04:37:35.698Z,93.04
2022-08-25T04:40:07.486Z,94.66
2022-08-25T04:42:35.214Z,96.39
2022-08-25T04:45:05.741Z,95.63
2022-08-25T04:47:41.713Z,95.33
2022-08-25T04:50:09.158Z,95.64
2022-08-25T04:52:39.508Z,95.89
2022-08-25T04:55:06.933Z,95.77
2022-08-25T04:57:34.601Z,96.05
2022-08-25T05:00:05.269Z,96.27
2022-08-25T05:02:33.069Z,96.01
2022-08-25T05:05:00.834Z,95.46
2022-08-25T05:07:47.295Z,96.46
2022-08-25T05:10:15.838Z,94.85
2022-08-25T05:12:50.974Z,96.22
2022-08-25T05:15:26.228Z,94.24
2022-08-25T05:17:56.066Z,93.35
2022-08-25T05:20:24.006Z,93.21
2022-08-25T05:22:54.198Z,93.03
2022-08-25T05:25:24.376Z,92.60
2022-08-25T05:27:52.620Z,92.69
2022-08-25T05:30:20.307Z,93.22
2022-08-25T05:32:53.192Z,92.48
2022-08-25T05:35:26.928Z,90.29
2022-08-25T05:37:54.177Z,92.95
2022-08-25T05:40:24.295Z,93.78
2022-08-25T05:43:13.330Z,91.34
2022-08-25T05:45:41.751Z,93.30
2022-08-25T05:48:12.788Z,94.09
2022-08-25T05:50:42.813Z,92.07
2022-08-25T05:53:15.987Z,91.08
2022-08-25T05:55:44.559Z,91.05
2022-08-25T05:58:11.864Z,91.11
2022-08-25T06:00:41.541Z,91.30
2022-08-25T06:03:11.546Z,90.17
2022-08-25T06:05:39.582Z,87.91
2022-08-25T06:08:07.255Z,87.28
2022-08-25T06:10:34.965Z,86.97
2022-08-25T06:13:09.061Z,87.52
2022-08-25T06:15:38.695Z,87.57
2022-08-25T06:18:07.084Z,86.75
2022-08-25T06:20:37.404Z,85.81
2022-08-25T06:23:05.455Z,85.43
2022-08-25T06:25:39.658Z,84.32
2022-08-25T06:28:08.267Z,85.20
2022-08-25T06:30:38.699Z,85.53
2022-08-25T06:33:11.992Z,87.16
2022-08-25T06:35:45.087Z,85.75
2022-08-25T06:38:15.546Z,86.22
2022-08-25T06:40:49.397Z,85.99
2022-08-25T06:43:23.436Z,86.17
2022-08-25T06:45:53.945Z,89.05
2022-08-25T06:48:21.269Z,85.33
2022-08-25T06:50:48.941Z,87.54
2022-08-25T06:53:19.797Z,87.27
2022-08-25T06:55:57.331Z,84.49
2022-08-25T06:58:28.518Z,85.72
2022-08-25T07:01:20.078Z,86.53
2022-08-25T07:03:54.612Z,85.74
2022-08-25T07:06:23.200Z,83.26
2022-08-25T07:08:53.600Z,84.41
2022-08-25T07:11:26.467Z,84.21
2022-08-25T07:13:56.890Z,83.93
2022-08-25T07:16:27.458Z,83.65
2022-08-25T07:19:01.631Z,83.86
2022-08-25T07:21:35.622Z,84.01
2022-08-25T07:24:07.634Z,82.66
2022-08-25T07:26:39.629Z,83.07
2022-08-25T07:29:11.877Z,82.92
2022-08-25T07:31:39.684Z,82.39
2022-08-25T07:34:12.749Z,81.90
2022-08-25T07:36:44.110Z,82.05
2022-08-25T07:39:17.295Z,81.12
2022-08-25T07:41:51.972Z,80.73
2022-08-25T07:44:21.819Z,77.30
2022-08-25T07:46:51.856Z,78.30
2022-08-25T07:49:26.358Z,79.94
2022-08-25T07:52:06.912Z,78.94
2022-08-25T07:54:38.560Z,78.67
2022-08-25T07:57:08.611Z,77.51
2022-08-25T07:59:43.166Z,77.83
2022-08-25T08:02:19.083Z,76.87
2022-08-25T08:04:49.284Z,78.18
2022-08-25T08:07:19.257Z,78.20
2022-08-25T08:10:25.737Z,78.22
2022-08-25T08:12:55.486Z,76.79
2022-08-25T08:15:30.046Z,75.87
2022-08-25T08:17:59.384Z,76.37
2022-08-25T08:20:30.839Z,78.25
2022-08-25T08:23:18.967Z,76.64
2022-08-25T08:25:49.529Z,76.72
2022-08-25T08:28:20.029Z,76.93
2022-08-25T08:30:55.341Z,78.50
2022-08-25T08:33:24.250Z,77.44
2022-08-25T08:35:59.799Z,77.60
2022-08-25T08:38:36.107Z,78.43
2022-08-25T08:41:23.464Z,78.52
2022-08-25T08:46:52.657Z,78.03
2022-08-25T08:49:53.386Z,76.91
2022-08-25T08:52:24.909Z,75.29
2022-08-25T08:54:59.001Z,75.90
2022-08-25T08:57:38.221Z,76.93
2022-08-25T09:00:12.744Z,72.32
2022-08-25T09:03:03.210Z,73.55
2022-08-25T09:05:46.618Z,77.73
2022-08-25T09:08:20.381Z,79.06
2022-08-25T09:11:16.265Z,77.09
2022-08-25T09:14:05.114Z,76.67
2022-08-25T09:16:58.954Z,76.21
2022-08-25T09:19:44.618Z,76.02
2022-08-25T09:22:34.971Z,74.19
2022-08-25T09:25:21.989Z,75.77
2022-08-25T09:28:00.000Z,70.31
2022-08-25T09:30:47.740Z,71.37
2022-08-25T09:33:20.867Z,77.27
2022-08-25T09:35:50.082Z,77.59
2022-08-25T09:38:21.628Z,73.21
2022-08-25T09:40:54.474Z,74.67
2022-08-25T09:43:32.514Z,73.95
2022-08-25T09:46:08.997Z,74.10
2022-08-25T09:48:45.433Z,75.43
2022-08-25T09:51:29.185Z,74.00
2022-08-25T09:54:10.502Z,73.63
2022-08-25T09:56:52.062Z,72.74
2022-08-25T09:59:34.483Z,69.91
2022-08-25T10:02:30.074Z,69.82
2022-08-25T10:05:17.149Z,67.78
2022-08-25T10:07:55.797Z,71.82
2022-08-25T10:10:33.834Z,75.59
2022-08-25T10:13:17.070Z,78.00
2022-08-25T10:16:18.053Z,76.35
2022-08-25T10:19:07.850Z,72.07
2022-08-25T10:21:37.594Z,72.99
2022-08-25T10:24:15.229Z,72.19
2022-08-25T10:26:46.035Z,70.61
2022-08-25T10:29:32.509Z,72.00
2022-08-25T10:32:10.254Z,69.34
2022-08-25T10:34:45.309Z,73.30
2022-08-25T10:37:27.615Z,69.18
2022-08-25T10:40:00.403Z,70.57
2022-08-25T10:42:34.145Z,72.43
2022-08-25T10:45:21.765Z,69.15
2022-08-25T10:48:07.298Z,69.85
2022-08-25T10:50:38.098Z,69.83
2022-08-25T10:53:09.090Z,65.70
2022-08-25T10:55:59.921Z,65.88
2022-08-25T10:58:36.676Z,64.09
2022-08-25T11:01:11.519Z,67.34
2022-08-25T11:03:42.421Z,70.22
2022-08-25T11:06:41.779Z,70.84
2022-08-25T11:09:28.663Z,65.09
2022-08-25T11:12:16.175Z,61.40
2022-08-25T11:14:55.683Z,59.87
2022-08-25T11:17:38.471Z,57.66
2022-08-25T11:20:16.323Z,59.79
2022-08-25T11:22:52.212Z,58.66
2022-08-25T11:25:24.927Z,62.16
2022-08-25T11:28:07.225Z,57.71
2022-08-25T11:30:41.558Z,62.32
2022-08-25T11:33:13.703Z,60.24
2022-08-25T11:35:50.552Z,59.04
2022-08-25T11:38:44.718Z,58.64
2022-08-25T11:41:15.358Z,54.80
2022-08-25T11:43:53.725Z,56.22
2022-08-25T11:46:27.824Z,57.24
2022-08-25T11:48:58.778Z,56.98
2022-08-25T11:51:45.485Z,55.80
2022-08-25T11:54:24.643Z,54.60
2022-08-25T11:57:00.296Z,56.30
2022-08-25T11:59:47.694Z,55.89
2022-08-25T12:02:35.902Z,51.76
2022-08-25T12:05:32.237Z,51.49
2022-08-25T12:08:07.485Z,47.63
2022-08-25T12:10:53.613Z,47.30
2022-08-25T12:13:26.742Z,49.79
2022-08-25T12:15:57.129Z,49.35
2022-08-25T12:18:27.216Z,47.69
2022-08-25T12:20:55.343Z,47.06
2022-08-25T12:23:29.943Z,46.34
2022-08-25T12:26:05.099Z,44.87
2022-08-25T12:28:44.945Z,46.35
2022-08-25T12:31:21.387Z,46.18
2022-08-25T12:33:52.213Z,43.76
2022-08-25T12:36:30.672Z,45.86
2022-08-25T12:39:27.660Z,43.93
2022-08-25T12:41:59.936Z,39.90
2022-08-25T12:44:48.615Z,40.08
2022-08-25T12:47:23.493Z,38.08
2022-08-25T12:50:11.297Z,37.78
2022-08-25T12:52:46.055Z,37.74
2022-08-25T12:55:14.881Z,39.16
2022-08-25T12:58:00.693Z,39.23
2022-08-25T13:00:29.775Z,38.86
2022-08-25T13:03:05.402Z,38.88
2022-08-25T13:05:52.472Z,39.05
2022-08-25T13:08:33.809Z,38.88
2022-08-25T13:11:04.340Z,39.65
2022-08-25T13:13:51.427Z,38.86
2022-08-25T13:16:28.412Z,38.86
2022-08-25T13:18:57.439Z,39.17
2022-08-25T13:21:35.603Z,38.35
2022-08-25T13:24:40.404Z,38.22
2022-08-25T13:27:13.047Z,39.62
2022-08-25T13:29:58.760Z,39.12
2022-08-25T13:32:36.421Z,40.38
2022-08-25T13:35:14.290Z,39.83
2022-08-25T13:37:41.715Z,39.66
2022-08-25T13:40:25.901Z,42.38
2022-08-25T13:42:59.052Z,39.68
2022-08-25T13:45:34.098Z,40.04
2022-08-25T13:48:22.969Z,40.08
2022-08-25T13:51:10.943Z,40.51
2022-08-25T13:53:48.413Z,40.27
2022-08-25T13:56:31.150Z,41.04
2022-08-25T13:59:09.991Z,39.99
2022-08-25T14:01:49.498Z,39.64
2022-08-25T14:04:26.652Z,40.91
2022-08-25T14:07:12.274Z,41.16
2022-08-25T14:09:49.801Z,41.07
2022-08-25T14:12:34.260Z,40.69
2022-08-25T14:15:22.259Z,40.27
2022-08-25T14:18:14.900Z,41.03
2022-08-25T14:20:54.038Z,40.83
2022-08-25T14:23:23.396Z,41.17
2022-08-25T14:25:56.549Z,41.57
2022-08-25T14:28:30.079Z,42.39
2022-08-25T14:31:00.755Z,41.99
2022-08-25T14:33:37.041Z,41.59
2022-08-25T14:36:05.580Z,44.88
2022-08-25T14:38:33.022Z,43.09
2022-08-25T14:41:03.478Z,43.02
2022-08-25T14:43:32.414Z,41.89
2022-08-25T14:46:01.001Z,42.53
2022-08-25T14:48:35.495Z,41.53
2022-08-25T14:51:05.887Z,42.09
2022-08-25T14:53:40.128Z,43.74
2022-08-25T14:56:10.975Z,42.59
2022-08-25T14:58:48.339Z,42.99
2022-08-25T15:01:29.289Z,42.39
2022-08-25T15:04:03.874Z,43.26
2022-08-25T15:06:37.132Z,42.92
2022-08-25T15:09:07.211Z,42.47
2022-08-25T15:11:41.625Z,42.31
2022-08-25T15:14:10.662Z,42.90
2022-08-25T15:16:51.176Z,42.86
2022-08-25T15:19:19.842Z,42.92
2022-08-25T15:21:51.246Z,41.96
2022-08-25T15:24:19.999Z,43.60
2022-08-25T15:29:22.961Z,44.55
2022-08-25T15:31:53.564Z,44.70
2022-08-25T15:34:23.932Z,43.50
2022-08-25T15:37:05.838Z,43.26
2022-08-25T15:39:36.679Z,43.85
2022-08-25T15:42:10.652Z,45.16
2022-08-25T15:44:39.682Z,44.24
2022-08-25T15:47:12.621Z,44.37
2022-08-25T15:49:42.987Z,44.75
2022-08-25T15:52:10.523Z,44.15
2022-08-25T15:54:40.802Z,44.85
2022-08-25T15:57:24.389Z,44.96
2022-08-25T15:59:57.608Z,46.48
2022-08-25T16:02:25.448Z,46.63
2022-08-25T16:04:55.398Z,45.79
2022-08-25T16:07:24.300Z,46.91
2022-08-25T16:09:58.236Z,49.50
2022-08-25T16:12:26.914Z,49.45
2022-08-25T16:15:00.143Z,51.29
2022-08-25T16:17:30.373Z,49.21
2022-08-25T16:20:07.540Z,51.34
2022-08-25T16:22:41.562Z,46.93
2022-08-25T16:25:11.709Z,51.35
2022-08-25T16:27:45.706Z,49.52
2022-08-25T16:30:17.704Z,47.98
2022-08-25T16:32:48.129Z,48.41
2022-08-25T16:35:24.213Z,48.52
2022-08-25T16:37:51.686Z,50.23
2022-08-25T16:40:22.999Z,50.43
2022-08-25T16:42:57.163Z,52.06
2022-08-25T16:45:31.144Z,51.95
2022-08-25T16:48:03.948Z,51.47
2022-08-25T16:50:34.768Z,51.85
2022-08-25T16:53:02.112Z,50.72
2022-08-25T16:55:38.752Z,53.40
2022-08-25T16:58:09.639Z,53.50
2022-08-25T17:00:41.643Z,54.13
2022-08-25T17:03:12.209Z,53.16
2022-08-25T17:05:43.201Z,53.66
2022-08-25T17:08:14.037Z,54.39
2022-08-25T17:10:42.804Z,55.82
2022-08-25T17:13:13.917Z,56.23
2022-08-25T17:15:49.066Z,56.15
2022-08-25T17:18:19.960Z,55.54
2022-08-25T17:21:00.832Z,53.87
2022-08-25T17:23:31.978Z,58.04
2022-08-25T17:26:02.471Z,55.35
2022-08-25T17:28:33.260Z,55.52
2022-08-25T17:31:04.913Z,56.52
2022-08-25T17:33:35.913Z,56.15
2022-08-25T17:36:15.286Z,56.20
2022-08-25T17:38:53.236Z,56.26
2022-08-25T17:41:22.949Z,56.74
2022-08-25T17:43:57.791Z,56.95
2022-08-25T17:46:27.186Z,56.63
2022-08-25T17:48:54.472Z,57.41
2022-08-25T17:51:25.081Z,57.54
2022-08-25T17:53:56.613Z,58.69
2022-08-25T17:56:27.859Z,58.92
2022-08-25T17:58:56.169Z,59.60
2022-08-25T18:01:27.826Z,59.87
2022-08-25T18:03:56.092Z,59.90
2022-08-25T18:06:28.119Z,60.41
2022-08-25T18:08:59.990Z,59.73
2022-08-25T18:11:34.678Z,60.18
2022-08-25T18:14:05.359Z,59.30
2022-08-25T18:16:32.857Z,59.90
2022-08-25T18:19:01.933Z,60.56
2022-08-25T18:21:31.616Z,60.86
2022-08-25T18:23:59.145Z,60.71
2022-08-25T18:26:33.507Z,60.19
2022-08-25T18:29:01.371Z,61.04
2022-08-25T18:31:29.732Z,61.70
2022-08-25T18:34:01.112Z,62.48
2022-08-25T18:36:32.810Z,62.67
2022-08-25T18:39:13.680Z,62.97
2022-08-25T18:41:41.901Z,62.52
2022-08-25T18:44:12.926Z,62.21
2022-08-25T18:46:52.117Z,62.44
2022-08-25T18:49:21.543Z,63.12
2022-08-25T18:52:00.920Z,63.33
2022-08-25T18:54:28.315Z,63.26
2022-08-25T18:56:58.358Z,62.79
2022-08-25T18:59:29.121Z,62.88
2022-08-25T19:02:03.239Z,62.99
2022-08-25T19:04:33.564Z,62.55
2022-08-25T19:07:01.658Z,62.12
2022-08-25T19:09:29.455Z,62.38
2022-08-25T19:11:59.167Z,61.87
2022-08-25T19:14:31.068Z,62.15
2022-08-25T19:16:59.029Z,62.61
2022-08-25T19:19:27.038Z,62.72
2022-08-25T19:21:54.490Z,62.61
2022-08-25T19:24:22.311Z,63.28
2022-08-25T19:26:59.201Z,64.08
2022-08-25T19:29:30.818Z,63.97
2022-08-25T19:32:03.219Z,64.28
2022-08-25T19:37:25.612Z,64.12
2022-08-25T19:40:05.131Z,65.06
2022-08-25T19:45:21.935Z,65.69
2022-08-25T19:47:59.643Z,66.42
2022-08-25T19:53:26.105Z,66.12
2022-08-25T19:55:55.668Z,65.82
2022-08-25T19:58:26.859Z,66.50
2022-08-25T20:00:54.306Z,65.91
2022-08-25T20:03:22.030Z,65.14
2022-08-25T20:05:53.223Z,65.11
2022-08-25T20:08:28.133Z,65.23
2022-08-25T20:10:57.722Z,65.41
2022-08-25T20:13:27.867Z,64.72
2022-08-25T20:15:58.857Z,64.93
2022-08-25T20:18:26.320Z,65.21
2022-08-25T20:20:53.792Z,65.26
2022-08-25T20:23:22.777Z,65.68
2022-08-25T20:25:50.498Z,65.50
2022-08-25T20:28:18.957Z,66.86
2022-08-25T20:30:46.528Z,66.29
2022-08-25T20:33:13.955Z,66.61
2022-08-25T20:35:50.608Z,66.42
2022-08-25T20:38:26.297Z,67.65
2022-08-25T20:40:53.514Z,68.83
2022-08-25T20:43:20.943Z,68.85
2022-08-25T20:45:48.493Z,69.71
2022-08-25T20:48:22.763Z,69.50
2022-08-25T20:50:57.414Z,70.41
2022-08-25T20:53:25.643Z,70.52
2022-08-25T20:55:53.385Z,70.85
2022-08-25T20:58:23.712Z,71.61
2022-08-25T21:00:59.796Z,70.70
2022-08-25T21:03:27.062Z,71.21
2022-08-25T21:06:01.377Z,69.12
2022-08-25T21:08:31.110Z,65.52
2022-08-25T21:10:58.548Z,62.50
2022-08-25T21:13:27.550Z,60.57
2022-08-25T21:16:03.966Z,59.68
2022-08-25T21:18:36.207Z,59.46
2022-08-25T21:21:08.556Z,59.89
2022-08-25T21:23:37.136Z,59.58
2022-08-25T21:26:11.888Z,60.15
2022-08-25T21:28:39.120Z,61.15
2022-08-25T21:31:16.718Z,60.76
2022-08-25T21:33:44.818Z,61.42
2022-08-25T21:36:16.210Z,62.11
2022-08-25T21:38:43.546Z,63.13
2022-08-25T21:41:13.641Z,64.29
2022-08-25T21:43:41.466Z,64.84
2022-08-25T21:46:16.728Z,64.95
2022-08-25T21:48:47.914Z,66.04
2022-08-25T21:51:23.944Z,67.31
2022-08-25T21:53:58.118Z,68.79
2022-08-25T21:56:26.375Z,69.27
2022-08-25T21:59:00.507Z,69.81
2022-08-25T22:01:31.758Z,69.55
2022-08-25T22:04:06.485Z,70.29
2022-08-25T22:06:36.724Z,70.74
2022-08-25T22:09:07.593Z,70.10
2022-08-25T22:11:41.874Z,70.92
2022-08-25T22:14:10.635Z,69.96
2022-08-25T22:16:38.498Z,70.93
2022-08-25T22:19:07.082Z,69.84
2022-08-25T22:21:34.874Z,68.84
2022-08-25T22:24:02.225Z,68.51
2022-08-25T22:26:32.618Z,68.04
2022-08-25T22:29:00.337Z,67.13
2022-08-25T22:31:33.783Z,67.17
2022-08-25T22:34:04.363Z,67.29
2022-08-25T22:36:39.493Z,67.03
2022-08-25T22:39:07.978Z,65.86
2022-08-25T22:41:37.704Z,64.77
2022-08-25T22:44:12.185Z,64.54
2022-08-25T22:46:42.287Z,63.89
2022-08-25T22:49:15.851Z,63.14
2022-08-25T22:54:56.198Z,64.98
2022-08-25T22:57:38.362Z,65.25
2022-08-25T23:00:25.787Z,65.80
2022-08-25T23:02:56.842Z,67.37
2022-08-25T23:08:39.091Z,69.74
2022-08-25T23:11:20.576Z,70.45
2022-08-25T23:14:08.177Z,72.30
2022-08-25T23:19:42.486Z,72.59
2022-08-25T23:22:35.247Z,73.30
2022-08-25T23:25:12.765Z,73.79
2022-08-25T23:27:51.599Z,73.92
2022-08-25T23:30:38.474Z,74.42
2022-08-25T23:33:19.909Z,75.05
2022-08-25T23:36:10.493Z,74.58
2022-08-25T23:41:27.800Z,75.31
2022-08-25T23:44:09.177Z,74.93
2022-08-25T23:46:49.163Z,74.93
2022-08-25T23:52:18.467Z,75.72
2022-08-25T23:57:51.648Z,75.88
